createdAt,value
2019-06-10T00:02:10.916Z,1.80
2019-06-10T00:05:03.758Z,1.35
2019-06-10T00:07:51.676Z,1.75
2019-06-10T00:10:42.521Z,1.67
2019-06-10T00:13:32.800Z,1.50
2019-06-10T00:16:23.427Z,1.50
2019-06-10T00:19:12.988Z,2.08
2019-06-10T00:22:03.553Z,1.70
2019-06-10T00:24:52.743Z,1.35
2019-06-10T00:27:42.188Z,1.30
2019-06-10T00:30:31.335Z,1.50
2019-06-10T00:33:21.723Z,1.50
2019-06-10T00:36:13.472Z,1.45
2019-06-10T00:39:03.439Z,1.50
2019-06-10T00:41:52.406Z,1.35
2019-06-10T00:44:41.893Z,1.37
2019-06-10T00:47:31.247Z,1.27
2019-06-10T00:50:21.705Z,1.27
2019-06-10T00:53:13.961Z,1.20
2019-06-10T00:56:05.197Z,1.50
2019-06-10T00:58:53.089Z,1.42
2019-06-10T01:01:42.300Z,1.50
2019-06-10T01:04:35.287Z,1.67
2019-06-10T01:07:25.169Z,1.50
2019-06-10T01:10:16.696Z,1.50
2019-06-10T01:13:07.030Z,1.55
2019-06-10T01:15:58.104Z,1.40
2019-06-10T01:18:50.336Z,1.80
2019-06-10T01:21:37.914Z,1.50
2019-06-10T01:24:27.653Z,1.55
2019-06-10T01:27:17.901Z,1.50
2019-06-10T01:30:16.666Z,1.60
2019-06-10T01:32:58.318Z,1.70
2019-06-10T01:35:47.308Z,2.05
2019-06-10T01:38:36.160Z,1.62
2019-06-10T01:41:25.582Z,1.87
2019-06-10T01:44:16.048Z,1.80
2019-06-10T01:47:06.684Z,1.52
2019-06-10T01:49:56.459Z,1.45
2019-06-10T01:52:45.828Z,1.70
2019-06-10T01:55:34.688Z,1.55
2019-06-10T01:58:23.762Z,1.55
2019-06-10T02:01:23.152Z,1.60
2019-06-10T02:04:14.161Z,1.50
2019-06-10T02:07:01.460Z,1.40
2019-06-10T02:09:51.752Z,1.70
2019-06-10T02:12:41.588Z,1.25
2019-06-10T02:15:31.492Z,1.22
2019-06-10T02:18:22.399Z,1.30
2019-06-10T02:21:13.031Z,1.20
2019-06-10T02:24:01.091Z,1.20
2019-06-10T02:26:51.661Z,1.57
2019-06-10T02:29:41.321Z,1.40
2019-06-10T02:32:36.187Z,1.57
2019-06-10T02:35:30.415Z,1.75
2019-06-10T02:38:16.826Z,1.50
2019-06-10T02:41:04.100Z,1.40
2019-06-10T02:43:53.582Z,1.82
2019-06-10T02:46:44.102Z,1.67
2019-06-10T02:49:48.131Z,1.50
2019-06-10T02:52:32.196Z,1.52
2019-06-10T02:55:16.359Z,1.52
2019-06-10T02:58:05.592Z,1.60
2019-06-10T03:00:54.822Z,2.00
2019-06-10T03:03:49.396Z,1.45
2019-06-10T03:06:39.934Z,1.45
2019-06-10T03:09:30.077Z,1.62
2019-06-10T03:12:17.595Z,1.47
2019-06-10T03:15:06.810Z,1.70
2019-06-10T03:17:55.970Z,1.57
2019-06-10T03:20:44.691Z,1.75
2019-06-10T03:23:33.915Z,1.45
2019-06-10T03:26:25.295Z,1.82
2019-06-10T03:29:13.378Z,1.70
2019-06-10T03:32:05.264Z,1.60
2019-06-10T03:34:54.771Z,1.70
2019-06-10T03:37:46.110Z,1.87
2019-06-10T03:40:35.256Z,1.70
2019-06-10T03:43:26.299Z,1.92
2019-06-10T03:46:15.478Z,1.82
2019-06-10T03:49:04.725Z,1.67
2019-06-10T03:51:54.028Z,2.08
2019-06-10T03:54:43.864Z,1.65
2019-06-10T03:57:33.271Z,2.12
2019-06-10T04:00:24.511Z,1.47
2019-06-10T04:03:12.859Z,1.70
2019-06-10T04:06:02.493Z,1.50
2019-06-10T04:08:52.410Z,1.30
2019-06-10T04:11:43.897Z,1.37
2019-06-10T04:14:33.349Z,1.32
2019-06-10T04:17:23.552Z,1.80
2019-06-10T04:20:15.442Z,2.22
2019-06-10T04:23:04.014Z,1.32
2019-06-10T04:25:53.357Z,1.42
2019-06-10T04:28:43.208Z,1.67
2019-06-10T04:31:33.156Z,2.00
2019-06-10T04:34:25.509Z,1.60
2019-06-10T04:37:13.427Z,1.80
2019-06-10T04:40:02.975Z,1.45
2019-06-10T04:42:52.630Z,1.30
2019-06-10T04:45:42.945Z,2.10
2019-06-10T04:48:32.994Z,1.85
2019-06-10T04:51:23.919Z,1.50
2019-06-10T04:54:13.348Z,2.08
2019-06-10T04:57:03.296Z,1.72
2019-06-10T04:59:52.985Z,1.70
2019-06-10T05:02:43.114Z,1.57
2019-06-10T05:05:32.921Z,1.70
2019-06-10T05:08:23.937Z,1.50
2019-06-10T05:11:13.002Z,1.57
2019-06-10T05:14:02.877Z,1.70
2019-06-10T05:16:54.325Z,1.40
2019-06-10T05:19:42.970Z,1.45
2019-06-10T05:22:32.823Z,1.30
2019-06-10T05:25:22.761Z,1.20
2019-06-10T05:28:13.298Z,1.20
2019-06-10T05:31:03.005Z,1.35
2019-06-10T05:33:53.067Z,1.52
2019-06-10T05:36:45.170Z,1.20
2019-06-10T05:39:35.317Z,1.62
2019-06-10T05:42:26.537Z,1.55
2019-06-10T05:45:15.887Z,1.40
2019-06-10T05:48:04.374Z,1.40
2019-06-10T05:51:02.234Z,1.42
2019-06-10T05:53:46.406Z,1.55
2019-06-10T05:56:35.982Z,1.42
2019-06-10T05:59:25.782Z,1.30
2019-06-10T06:02:15.630Z,1.25
2019-06-10T06:05:05.643Z,1.20
2019-06-10T06:08:04.878Z,1.40
2019-06-10T06:10:45.871Z,1.50
2019-06-10T06:13:36.077Z,1.40
2019-06-10T06:16:25.775Z,1.50
2019-06-10T06:19:15.064Z,1.45
2019-06-10T06:22:04.199Z,1.50
2019-06-10T06:24:53.678Z,1.77
2019-06-10T06:27:43.142Z,1.30
2019-06-10T06:30:34.504Z,1.27
2019-06-10T06:33:23.481Z,1.42
2019-06-10T06:36:12.788Z,1.75
2019-06-10T06:39:02.425Z,1.65
2019-06-10T06:41:52.822Z,1.90
2019-06-10T06:44:43.376Z,1.65
2019-06-10T06:47:35.646Z,1.65
2019-06-10T06:50:25.629Z,1.90
2019-06-10T06:53:25.690Z,1.57
2019-06-10T06:56:05.092Z,1.40
2019-06-10T06:58:55.720Z,1.37
2019-06-10T07:01:45.117Z,1.47
2019-06-10T07:04:35.929Z,1.35
2019-06-10T07:07:26.638Z,1.75
2019-06-10T07:10:16.340Z,1.40
2019-06-10T07:13:06.685Z,1.45
2019-06-10T07:15:55.675Z,1.60
2019-06-10T07:18:50.195Z,1.37
2019-06-10T07:21:55.700Z,1.55
2019-06-10T07:24:26.889Z,1.55
2019-06-10T07:27:16.245Z,1.40
2019-06-10T07:30:11.649Z,1.60
2019-06-10T07:32:56.832Z,1.87
2019-06-10T07:35:46.045Z,1.50
2019-06-10T07:38:37.966Z,1.70
2019-06-10T07:41:26.208Z,1.50
2019-06-10T07:44:15.073Z,1.72
2019-06-10T07:47:04.149Z,1.75
2019-06-10T07:49:53.822Z,1.60
2019-06-10T07:52:46.596Z,1.95
2019-06-10T07:55:36.248Z,1.70
2019-06-10T07:58:26.387Z,1.70
2019-06-10T08:01:15.966Z,1.55
2019-06-10T08:04:05.288Z,1.82
2019-06-10T08:06:54.580Z,1.72
2019-06-10T08:09:45.743Z,1.60
2019-06-10T08:12:35.095Z,1.92
2019-06-10T08:15:24.757Z,1.50
2019-06-10T08:18:14.042Z,1.60
2019-06-10T08:21:03.373Z,1.57
2019-06-10T08:23:54.449Z,1.50
2019-06-10T08:26:45.574Z,1.70
2019-06-10T08:29:36.607Z,2.37
2019-06-10T08:32:26.657Z,1.57
2019-06-10T08:35:16.729Z,1.62
2019-06-10T08:38:06.173Z,1.30
2019-06-10T08:40:55.495Z,1.80
2019-06-10T08:43:45.607Z,1.75
2019-06-10T08:46:34.452Z,1.82
2019-06-10T08:49:24.573Z,1.65
2019-06-10T08:52:13.867Z,1.60
2019-06-10T08:55:03.568Z,1.37
2019-06-10T08:57:54.006Z,1.98
2019-06-10T09:00:46.256Z,1.40
2019-06-10T09:03:34.246Z,1.50
2019-06-10T09:06:23.300Z,1.60
2019-06-10T09:09:13.092Z,1.55
2019-06-10T09:12:03.623Z,1.40
2019-06-10T09:14:53.332Z,1.67
2019-06-10T09:17:46.401Z,1.40
2019-06-10T09:20:33.370Z,1.35
2019-06-10T09:23:25.526Z,1.25
2019-06-10T09:26:13.390Z,1.57
2019-06-10T09:29:03.032Z,1.52
2019-06-10T09:31:55.497Z,1.40
2019-06-10T09:34:47.159Z,1.52
2019-06-10T09:37:33.515Z,1.75
2019-06-10T09:40:24.493Z,1.60
2019-06-10T09:43:13.044Z,1.32
2019-06-10T09:46:03.525Z,2.10
2019-06-10T09:48:55.815Z,1.57
2019-06-10T09:51:47.205Z,1.25
2019-06-10T09:54:35.490Z,1.55
2019-06-10T09:57:25.119Z,1.55
2019-06-10T10:00:14.888Z,1.60
2019-06-10T10:03:04.726Z,1.40
2019-06-10T10:06:06.797Z,1.70
2019-06-10T10:08:49.372Z,1.67
2019-06-10T10:11:36.281Z,1.45
2019-06-10T10:14:25.737Z,1.67
2019-06-10T10:17:15.177Z,1.60
2019-06-10T10:20:05.089Z,1.77
2019-06-10T10:22:55.530Z,1.90
2019-06-10T10:25:46.252Z,1.60
2019-06-10T10:28:35.200Z,1.62
2019-06-10T10:31:24.562Z,1.35
2019-06-10T10:34:13.699Z,1.50
2019-06-10T10:37:03.101Z,1.75
2019-06-10T10:39:55.426Z,1.32
2019-06-10T10:42:49.817Z,1.77
2019-06-10T10:45:33.524Z,1.70
2019-06-10T10:48:22.760Z,1.77
2019-06-10T10:51:13.314Z,1.20
2019-06-10T10:54:32.245Z,1.50
2019-06-10T10:56:59.001Z,1.25
2019-06-10T10:59:48.027Z,1.47
2019-06-10T11:02:39.728Z,1.52
2019-06-10T11:05:35.310Z,1.70
2019-06-10T11:08:24.495Z,1.37
2019-06-10T11:11:14.112Z,1.70
2019-06-10T11:14:03.628Z,1.60
2019-06-10T11:16:56.872Z,1.32
2019-06-10T11:19:45.175Z,1.20
2019-06-10T11:22:34.587Z,1.45
2019-06-10T11:25:23.760Z,1.57
2019-06-10T11:28:13.246Z,1.42
2019-06-10T11:31:03.791Z,1.67
2019-06-10T11:33:56.152Z,1.72
2019-06-10T11:36:42.851Z,1.30
2019-06-10T11:39:33.824Z,1.37
2019-06-10T11:42:23.436Z,1.32
2019-06-10T11:45:13.165Z,1.30
2019-06-10T11:48:02.528Z,1.60
2019-06-10T11:50:56.518Z,1.42
2019-06-10T11:53:44.043Z,1.47
2019-06-10T11:56:33.771Z,1.17
2019-06-10T11:59:22.574Z,1.27
2019-06-10T12:02:13.281Z,1.62
2019-06-10T12:05:04.057Z,1.37
2019-06-10T12:07:56.322Z,1.40
2019-06-10T12:10:43.458Z,1.70
2019-06-10T12:13:34.491Z,1.40
2019-06-10T12:19:14.594Z,2.10
2019-06-10T12:22:07.146Z,1.60
2019-06-10T12:25:21.146Z,2.00
2019-06-10T12:27:45.303Z,1.75
2019-06-10T12:30:34.596Z,1.22
2019-06-10T12:33:25.348Z,2.00
2019-06-10T12:36:14.037Z,2.05
2019-06-10T12:39:10.218Z,1.92
2019-06-10T12:41:57.581Z,1.60
2019-06-10T12:44:44.971Z,2.20
2019-06-10T12:47:34.292Z,2.00
2019-06-10T12:50:23.954Z,2.33
2019-06-10T12:53:13.260Z,2.10
2019-06-10T12:56:08.026Z,2.05
2019-06-10T12:58:54.604Z,2.02
2019-06-10T13:01:46.746Z,1.85
2019-06-10T13:04:35.980Z,2.30
2019-06-10T13:07:25.561Z,1.70
2019-06-10T13:10:35.276Z,1.70
2019-06-10T13:13:24.762Z,1.92
2019-06-10T13:16:14.211Z,2.00
2019-06-10T13:19:06.099Z,2.20
2019-06-10T13:21:55.177Z,2.20
2019-06-10T13:24:43.970Z,1.90
2019-06-10T13:27:33.043Z,1.98
2019-06-10T13:30:22.684Z,2.30
2019-06-10T13:33:14.468Z,2.92
2019-06-10T13:36:06.410Z,2.25
2019-06-10T13:38:53.421Z,2.45
2019-06-10T13:41:43.837Z,2.10
2019-06-10T13:44:33.862Z,2.50
2019-06-10T13:47:26.044Z,2.22
2019-06-10T13:50:14.627Z,1.75
2019-06-10T13:53:06.346Z,2.05
2019-06-10T13:56:14.429Z,2.00
2019-06-10T13:58:46.285Z,1.87
2019-06-10T14:01:35.909Z,2.35
2019-06-10T14:04:25.854Z,2.22
2019-06-10T14:07:17.250Z,2.27
2019-06-10T14:10:10.870Z,2.00
2019-06-10T14:12:56.789Z,2.10
2019-06-10T14:15:46.063Z,2.40
2019-06-10T14:18:34.902Z,2.60
2019-06-10T14:21:23.809Z,2.60
2019-06-10T14:24:15.968Z,3.20
2019-06-10T14:27:07.169Z,2.65
2019-06-10T14:29:55.532Z,2.02
2019-06-10T14:32:44.846Z,2.45
2019-06-10T14:35:34.070Z,2.80
2019-06-10T14:38:23.714Z,2.72
2019-06-10T14:41:14.322Z,2.27
2019-06-10T14:44:04.524Z,2.58
2019-06-10T14:46:53.248Z,2.67
2019-06-10T14:49:42.777Z,2.33
2019-06-10T14:52:32.535Z,2.02
2019-06-10T14:55:23.219Z,2.67
2019-06-10T14:58:13.612Z,2.22
2019-06-10T15:01:04.726Z,2.80
2019-06-10T15:03:52.647Z,2.40
2019-06-10T15:06:43.163Z,2.40
2019-06-10T15:09:33.480Z,2.60
2019-06-10T15:12:24.869Z,2.47
2019-06-10T15:15:14.359Z,2.67
2019-06-10T15:18:04.245Z,3.92
2019-06-10T15:20:53.703Z,2.65
2019-06-10T15:23:43.821Z,2.87
2019-06-10T15:26:33.157Z,2.98
2019-06-10T15:29:23.496Z,2.10
2019-06-10T15:32:24.477Z,2.37
2019-06-10T15:35:03.384Z,2.30
2019-06-10T15:37:53.219Z,2.70
2019-06-10T15:40:43.399Z,2.27
2019-06-10T15:43:33.209Z,2.72
2019-06-10T15:46:22.356Z,2.62
2019-06-10T15:49:14.565Z,2.60
2019-06-10T15:52:03.286Z,2.80
2019-06-10T15:54:52.891Z,2.72
2019-06-10T15:57:45.627Z,3.15
2019-06-10T16:00:35.025Z,2.33
2019-06-10T16:03:25.648Z,2.52
2019-06-10T16:06:16.007Z,2.02
2019-06-10T16:09:07.549Z,2.40
2019-06-10T16:11:56.990Z,2.05
2019-06-10T16:14:45.577Z,2.02
2019-06-10T16:17:35.415Z,2.40
2019-06-10T16:20:25.177Z,1.70
2019-06-10T16:23:16.093Z,2.00
2019-06-10T16:26:05.664Z,2.30
2019-06-10T16:28:54.770Z,2.80
2019-06-10T16:31:44.242Z,2.67
2019-06-10T16:34:33.040Z,2.87
2019-06-10T16:37:24.070Z,2.98
2019-06-10T16:40:12.598Z,3.50
2019-06-10T16:43:03.751Z,3.50
2019-06-10T16:45:53.198Z,3.08
2019-06-10T16:48:43.584Z,4.12
2019-06-10T16:51:32.707Z,4.70
2019-06-10T16:54:24.242Z,3.65
2019-06-10T16:57:12.658Z,3.10
2019-06-10T17:00:07.004Z,3.45
2019-06-10T17:02:53.146Z,3.52
2019-06-10T17:05:42.679Z,2.87
2019-06-10T17:08:33.497Z,2.80
2019-06-10T17:11:24.100Z,3.02
2019-06-10T17:14:12.682Z,2.47
2019-06-10T17:17:03.545Z,2.98
2019-06-10T17:19:53.043Z,2.50
2019-06-10T17:22:43.425Z,2.37
2019-06-10T17:25:33.774Z,2.47
2019-06-10T17:28:28.505Z,2.42
2019-06-10T17:31:17.780Z,2.75
2019-06-10T17:34:06.944Z,2.50
2019-06-10T17:36:55.579Z,3.10
2019-06-10T17:39:44.074Z,2.85
2019-06-10T17:42:38.156Z,3.10
2019-06-10T17:45:26.194Z,2.50
2019-06-10T17:48:15.127Z,2.72
2019-06-10T17:51:04.001Z,2.35
2019-06-10T17:53:53.083Z,2.77
2019-06-10T17:56:42.746Z,2.80
2019-06-10T17:59:34.080Z,3.00
2019-06-10T18:02:24.635Z,3.37
2019-06-10T18:05:13.758Z,2.90
2019-06-10T18:08:03.173Z,3.33
2019-06-10T18:10:53.616Z,3.15
2019-06-10T18:13:43.059Z,3.00
2019-06-10T18:16:35.911Z,3.70
2019-06-10T18:19:26.250Z,3.55
2019-06-10T18:22:15.722Z,3.50
2019-06-10T18:25:05.296Z,3.08
2019-06-10T18:27:54.722Z,4.05
2019-06-10T18:30:43.615Z,3.52
2019-06-10T18:33:35.997Z,3.30
2019-06-10T18:36:24.461Z,4.03
2019-06-10T18:39:14.581Z,3.25
2019-06-10T18:42:04.153Z,3.42
2019-06-10T18:44:53.753Z,3.60
2019-06-10T18:47:43.472Z,3.72
2019-06-10T18:50:33.397Z,3.67
2019-06-10T18:53:23.752Z,3.70
2019-06-10T18:56:13.259Z,4.33
2019-06-10T18:59:15.638Z,3.67
2019-06-10T19:01:53.636Z,3.47
2019-06-10T19:04:43.576Z,3.40
2019-06-10T19:07:34.761Z,3.10
2019-06-10T19:10:24.032Z,2.92
2019-06-10T19:13:13.563Z,3.87
2019-06-10T19:16:03.126Z,3.30
2019-06-10T19:18:53.008Z,3.95
2019-06-10T19:21:43.919Z,3.98
2019-06-10T19:24:36.305Z,3.37
2019-06-10T19:27:28.224Z,3.92
2019-06-10T19:30:23.123Z,4.22
2019-06-10T19:33:12.738Z,3.02
2019-06-10T19:36:04.865Z,3.45
2019-06-10T19:38:55.619Z,3.37
2019-06-10T19:41:47.405Z,3.17
2019-06-10T19:44:37.046Z,2.80
2019-06-10T19:47:26.433Z,2.47
2019-06-10T19:50:16.038Z,2.87
2019-06-10T19:53:04.561Z,2.80
2019-06-10T19:55:53.658Z,2.55
2019-06-10T19:58:43.505Z,2.65
2019-06-10T20:01:35.186Z,2.83
2019-06-10T20:04:23.673Z,2.33
2019-06-10T20:07:12.925Z,2.58
2019-06-10T20:10:02.934Z,2.50
2019-06-10T20:12:53.642Z,3.00
2019-06-10T20:15:44.979Z,2.50
2019-06-10T20:18:33.370Z,2.40
2019-06-10T20:21:22.828Z,2.60
2019-06-10T20:24:13.637Z,2.40
2019-06-10T20:27:03.996Z,2.85
2019-06-10T20:30:04.523Z,2.62
2019-06-10T20:32:51.859Z,2.60
2019-06-10T20:35:40.387Z,3.12
2019-06-10T20:38:32.540Z,2.67
2019-06-10T20:41:21.199Z,2.42
2019-06-10T20:44:12.981Z,2.45
2019-06-10T20:47:01.585Z,2.55
2019-06-10T20:49:56.016Z,2.52
2019-06-10T20:52:45.985Z,2.40
2019-06-10T20:55:42.442Z,2.42
2019-06-10T20:58:24.594Z,2.90
2019-06-10T21:01:13.988Z,2.15
2019-06-10T21:04:03.928Z,2.20
2019-06-10T21:06:53.973Z,2.52
2019-06-10T21:09:44.417Z,2.30
2019-06-10T21:12:33.689Z,2.33
2019-06-10T21:15:23.367Z,2.15
2019-06-10T21:18:13.189Z,2.27
2019-06-10T21:21:01.934Z,2.00
2019-06-10T21:23:51.788Z,2.30
2019-06-10T21:26:43.870Z,2.40
2019-06-10T21:29:32.295Z,2.42
2019-06-10T21:32:22.047Z,2.10
2019-06-10T21:35:12.077Z,2.12
2019-06-10T21:38:01.054Z,2.22
2019-06-10T21:40:49.816Z,2.20
2019-06-10T21:43:41.469Z,2.08
2019-06-10T21:46:28.823Z,2.37
2019-06-10T21:49:17.611Z,2.10
2019-06-10T21:52:06.843Z,2.10
2019-06-10T21:54:56.248Z,2.33
2019-06-10T21:57:46.827Z,2.30
2019-06-10T22:00:55.590Z,2.27
2019-06-10T22:03:35.987Z,2.25
2019-06-10T22:06:25.510Z,2.08
2019-06-10T22:09:14.380Z,2.33
2019-06-10T22:12:03.470Z,2.60
2019-06-10T22:14:52.500Z,2.20
2019-06-10T22:17:46.245Z,2.27
2019-06-10T22:20:35.662Z,2.12
2019-06-10T22:23:24.662Z,2.05
2019-06-10T22:26:13.857Z,2.10
2019-06-10T22:29:03.253Z,2.20
2019-06-10T22:31:55.057Z,2.20
2019-06-10T22:34:42.962Z,2.10
2019-06-10T22:37:32.985Z,2.20
2019-06-10T22:40:22.979Z,2.05
2019-06-10T22:43:13.042Z,2.30
2019-06-10T22:46:04.031Z,2.20
2019-06-10T22:48:53.391Z,2.30
2019-06-10T22:51:43.259Z,1.85
2019-06-10T22:54:32.439Z,1.82
2019-06-10T22:57:22.236Z,2.10
2019-06-10T23:00:13.096Z,1.90
2019-06-10T23:03:02.870Z,1.60
2019-06-10T23:05:54.341Z,1.87
2019-06-10T23:08:44.109Z,2.20
2019-06-10T23:11:33.860Z,1.80
2019-06-10T23:14:23.374Z,1.65
2019-06-10T23:17:14.190Z,2.08
2019-06-10T23:20:03.310Z,1.62
2019-06-10T23:22:55.508Z,1.90
2019-06-10T23:25:43.265Z,2.17
2019-06-10T23:28:32.870Z,1.90
2019-06-10T23:31:23.068Z,1.75
2019-06-10T23:34:19.946Z,1.85
2019-06-10T23:37:13.787Z,1.95
2019-06-10T23:40:04.665Z,1.95
2019-06-10T23:42:57.056Z,1.60
2019-06-10T23:45:51.297Z,1.72
2019-06-10T23:48:45.220Z,1.52
2019-06-10T23:51:34.504Z,1.90
2019-06-10T23:54:27.835Z,2.00
2019-06-10T23:57:22.317Z,2.08
